createdAt,value
2022-12-03T00:02:07.392Z,14.70
2022-12-03T00:04:34.200Z,12.35
2022-12-03T00:07:00.822Z,13.43
2022-12-03T00:09:27.448Z,14.20
2022-12-03T00:11:54.071Z,14.57
2022-12-03T00:14:20.648Z,13.55
2022-12-03T00:16:47.435Z,13.27
2022-12-03T00:19:14.058Z,13.70
2022-12-03T00:21:40.658Z,12.10
2022-12-03T00:24:07.710Z,14.38
2022-12-03T00:26:34.304Z,16.17
2022-12-03T00:29:00.889Z,14.43
2022-12-03T00:31:27.873Z,13.38
2022-12-03T00:33:54.577Z,13.70
2022-12-03T00:36:21.245Z,11.38
2022-12-03T00:38:48.066Z,12.63
2022-12-03T00:41:14.701Z,13.43
2022-12-03T00:43:41.337Z,13.57
2022-12-03T00:46:08.017Z,11.02
2022-12-03T00:48:34.696Z,12.82
2022-12-03T00:51:01.410Z,13.20
2022-12-03T00:53:28.172Z,12.25
2022-12-03T00:55:54.830Z,12.52
2022-12-03T00:58:21.481Z,14.98
2022-12-03T01:00:48.099Z,15.13
2022-12-03T01:03:14.668Z,12.88
2022-12-03T01:05:41.276Z,13.40
2022-12-03T01:08:08.768Z,13.77
2022-12-03T01:10:35.477Z,12.23
2022-12-03T01:13:02.072Z,11.82
2022-12-03T01:15:28.676Z,12.82
2022-12-03T01:17:55.248Z,11.60
2022-12-03T01:20:21.955Z,15.23
2022-12-03T01:22:48.592Z,11.93
2022-12-03T01:25:15.577Z,12.40
2022-12-03T01:27:42.359Z,13.70
2022-12-03T01:30:11.035Z,13.35
2022-12-03T01:32:37.674Z,14.07
2022-12-03T01:35:04.890Z,12.90
2022-12-03T01:37:31.505Z,13.85
2022-12-03T01:39:58.164Z,12.02
2022-12-03T01:42:28.866Z,14.65
2022-12-03T01:44:58.335Z,13.57
2022-12-03T01:47:34.988Z,14.50
2022-12-03T01:50:04.080Z,14.75
2022-12-03T01:52:34.199Z,13.55
2022-12-03T01:55:04.197Z,13.75
2022-12-03T01:57:40.699Z,14.02
2022-12-03T02:00:12.668Z,16.30
2022-12-03T02:02:39.420Z,13.63
2022-12-03T02:05:17.912Z,17.60
2022-12-03T02:07:44.596Z,13.52
2022-12-03T02:10:13.945Z,14.50
2022-12-03T02:12:58.716Z,15.57
2022-12-03T02:15:25.624Z,12.98
2022-12-03T02:17:53.292Z,13.80
2022-12-03T02:20:20.313Z,13.60
2022-12-03T02:23:08.535Z,16.95
2022-12-03T02:25:36.632Z,13.65
2022-12-03T02:28:05.085Z,17.08
2022-12-03T02:30:32.326Z,16.13
2022-12-03T02:32:59.630Z,15.10
2022-12-03T02:35:30.284Z,15.60
2022-12-03T02:38:02.093Z,18.15
2022-12-03T02:40:32.324Z,17.88
2022-12-03T02:43:01.460Z,13.75
2022-12-03T02:45:35.144Z,15.02
2022-12-03T02:48:15.389Z,16.25
2022-12-03T02:50:48.121Z,15.45
2022-12-03T02:53:20.248Z,17.80
2022-12-03T02:55:48.278Z,19.50
2022-12-03T02:58:15.566Z,15.07
2022-12-03T03:00:43.858Z,17.63
2022-12-03T03:03:10.864Z,18.50
2022-12-03T03:05:40.025Z,17.30
2022-12-03T03:08:08.725Z,16.65
2022-12-03T03:10:38.455Z,17.88
2022-12-03T03:13:10.148Z,20.38
2022-12-03T03:15:41.545Z,20.88
2022-12-03T03:18:09.223Z,18.90
2022-12-03T03:20:37.089Z,22.92
2022-12-03T03:23:14.659Z,19.80
2022-12-03T03:25:47.625Z,18.40
2022-12-03T03:28:15.354Z,23.25
2022-12-03T03:30:43.476Z,25.25
2022-12-03T03:33:12.402Z,19.92
2022-12-03T03:35:39.711Z,22.33
2022-12-03T03:38:07.912Z,22.45
2022-12-03T03:40:34.787Z,20.75
2022-12-03T03:43:01.637Z,21.08
2022-12-03T03:45:29.577Z,21.55
2022-12-03T03:47:59.881Z,24.30
2022-12-03T03:50:29.247Z,21.42
2022-12-03T03:52:56.644Z,21.80
2022-12-03T03:55:23.645Z,25.38
2022-12-03T03:57:50.505Z,27.98
2022-12-03T04:00:17.540Z,23.70
2022-12-03T04:02:44.440Z,20.27
2022-12-03T04:05:18.952Z,23.88
2022-12-03T04:07:45.873Z,21.85
2022-12-03T04:10:32.904Z,22.75
2022-12-03T04:13:00.375Z,25.58
2022-12-03T04:15:27.763Z,21.55
2022-12-03T04:18:26.440Z,24.77
2022-12-03T04:21:13.014Z,21.40
2022-12-03T04:23:39.847Z,23.52
2022-12-03T04:26:25.256Z,25.38
2022-12-03T04:28:51.870Z,23.00
2022-12-03T04:31:36.985Z,23.83
2022-12-03T04:34:22.463Z,25.00
2022-12-03T04:36:49.267Z,20.80
2022-12-03T04:39:16.143Z,20.83
2022-12-03T04:41:42.761Z,19.48
2022-12-03T04:44:27.980Z,27.17
2022-12-03T04:46:54.576Z,23.80
2022-12-03T04:49:21.484Z,20.95
2022-12-03T04:51:48.169Z,19.02
2022-12-03T04:54:14.919Z,25.33
2022-12-03T04:56:41.675Z,21.45
2022-12-03T04:59:15.818Z,22.52
2022-12-03T05:01:43.606Z,19.23
2022-12-03T05:04:10.857Z,21.33
2022-12-03T05:06:37.687Z,26.02
2022-12-03T05:09:04.705Z,20.00
2022-12-03T05:11:31.375Z,22.23
2022-12-03T05:13:58.107Z,19.88
2022-12-03T05:16:24.858Z,22.02
2022-12-03T05:18:51.487Z,17.58
2022-12-03T05:21:18.104Z,21.02
2022-12-03T05:23:44.838Z,22.83
2022-12-03T05:26:11.532Z,23.58
2022-12-03T05:28:38.187Z,19.42
2022-12-03T05:31:05.086Z,19.58
2022-12-03T05:33:31.998Z,19.85
2022-12-03T05:35:58.734Z,19.58
2022-12-03T05:38:25.343Z,18.05
2022-12-03T05:40:51.971Z,17.60
2022-12-03T05:43:18.617Z,17.08
2022-12-03T05:45:45.361Z,19.20
2022-12-03T05:48:16.603Z,18.02
2022-12-03T05:50:45.058Z,17.77
2022-12-03T05:53:15.927Z,21.60
2022-12-03T05:55:42.734Z,21.23
2022-12-03T05:58:09.469Z,16.20
2022-12-03T06:00:42.473Z,16.60
2022-12-03T06:03:10.666Z,18.33
2022-12-03T06:05:37.587Z,15.32
2022-12-03T06:08:04.739Z,17.13
2022-12-03T06:10:32.402Z,19.13
2022-12-03T06:12:59.061Z,19.45
2022-12-03T06:15:25.676Z,15.80
2022-12-03T06:17:52.411Z,20.70
2022-12-03T06:20:20.684Z,18.80
2022-12-03T06:22:47.739Z,16.13
2022-12-03T06:25:15.619Z,18.77
2022-12-03T06:27:42.459Z,17.77
2022-12-03T06:30:12.464Z,24.42
2022-12-03T06:32:39.085Z,21.02
2022-12-03T06:35:05.921Z,17.92
2022-12-03T06:37:32.565Z,18.25
2022-12-03T06:39:59.173Z,15.38
2022-12-03T06:42:25.789Z,19.58
2022-12-03T06:44:52.868Z,19.88
2022-12-03T06:47:20.135Z,19.30
2022-12-03T06:49:46.903Z,16.60
2022-12-03T06:52:13.532Z,20.35
2022-12-03T06:54:40.131Z,18.23
2022-12-03T06:57:06.785Z,15.65
2022-12-03T06:59:35.666Z,15.88
2022-12-03T07:02:02.387Z,23.15
2022-12-03T07:04:29.104Z,15.43
2022-12-03T07:06:55.723Z,21.38
2022-12-03T07:09:22.382Z,24.13
2022-12-03T07:11:49.017Z,19.20
2022-12-03T07:14:15.681Z,20.13
2022-12-03T07:16:43.694Z,21.15
2022-12-03T07:19:11.480Z,18.33
2022-12-03T07:21:38.319Z,20.50
2022-12-03T07:24:05.586Z,17.75
2022-12-03T07:26:32.293Z,18.17
2022-12-03T07:28:59.089Z,18.05
2022-12-03T07:31:25.755Z,17.00
2022-12-03T07:33:52.524Z,17.02
2022-12-03T07:36:19.189Z,19.30
2022-12-03T07:38:45.921Z,17.90
2022-12-03T07:41:12.619Z,21.55
2022-12-03T07:43:39.255Z,18.83
2022-12-03T07:46:05.976Z,18.33
2022-12-03T07:48:32.670Z,18.95
2022-12-03T07:50:59.283Z,18.95
2022-12-03T07:53:25.899Z,19.23
2022-12-03T07:55:52.524Z,18.95
2022-12-03T07:58:19.194Z,20.60
2022-12-03T08:00:45.893Z,18.83
2022-12-03T08:03:12.581Z,21.88
2022-12-03T08:05:39.193Z,18.20
2022-12-03T08:08:06.096Z,16.67
2022-12-03T08:10:32.899Z,23.42
2022-12-03T08:13:00.117Z,19.95
2022-12-03T08:15:32.462Z,15.50
2022-12-03T08:18:18.060Z,27.08
2022-12-03T08:20:46.464Z,16.63
2022-12-03T08:23:19.458Z,22.02
2022-12-03T08:25:46.645Z,18.00
2022-12-03T08:28:19.269Z,18.58
2022-12-03T08:30:58.964Z,18.27
2022-12-03T08:33:35.355Z,19.08
2022-12-03T08:36:12.414Z,21.45
2022-12-03T08:38:40.992Z,16.95
2022-12-03T08:41:14.322Z,16.13
2022-12-03T08:43:43.651Z,16.48
2022-12-03T08:46:19.270Z,19.85
2022-12-03T08:48:49.040Z,18.50
2022-12-03T08:51:24.925Z,21.27
2022-12-03T08:54:01.555Z,17.20
2022-12-03T08:56:31.863Z,17.60
2022-12-03T08:59:00.536Z,14.80
2022-12-03T09:01:53.619Z,17.70
2022-12-03T09:04:39.004Z,17.65
2022-12-03T09:07:05.827Z,16.27
2022-12-03T09:09:33.608Z,18.23
2022-12-03T09:12:01.973Z,15.95
2022-12-03T09:14:28.868Z,15.82
2022-12-03T09:16:56.401Z,17.80
2022-12-03T09:19:25.376Z,18.38
2022-12-03T09:21:52.918Z,14.50
2022-12-03T09:24:20.279Z,14.57
2022-12-03T09:26:47.063Z,15.20
2022-12-03T09:29:13.727Z,15.40
2022-12-03T09:31:40.889Z,21.25
2022-12-03T09:34:07.991Z,19.55
2022-12-03T09:36:34.688Z,16.65
2022-12-03T09:39:01.334Z,16.38
2022-12-03T09:41:28.504Z,19.33
2022-12-03T09:44:04.785Z,15.07
2022-12-03T09:46:33.951Z,19.40
2022-12-03T09:49:01.184Z,15.63
2022-12-03T09:51:34.597Z,16.83
2022-12-03T09:54:04.501Z,15.55
2022-12-03T09:56:31.788Z,17.45
2022-12-03T09:58:58.935Z,19.92
2022-12-03T10:01:29.907Z,17.75
2022-12-03T10:03:58.132Z,17.20
2022-12-03T10:06:25.066Z,18.38
2022-12-03T10:08:54.637Z,16.42
2022-12-03T10:11:24.283Z,16.75
2022-12-03T10:13:53.315Z,15.68
2022-12-03T10:16:21.443Z,17.25
2022-12-03T10:18:55.468Z,16.30
2022-12-03T10:21:34.527Z,18.23
2022-12-03T10:24:21.243Z,13.90
2022-12-03T10:26:49.617Z,16.98
2022-12-03T10:29:33.248Z,20.60
2022-12-03T10:32:18.766Z,19.63
2022-12-03T10:34:46.980Z,15.63
2022-12-03T10:37:21.310Z,15.80
2022-12-03T10:40:01.188Z,17.17
2022-12-03T10:42:31.879Z,18.88
2022-12-03T10:45:20.435Z,18.98
2022-12-03T10:48:04.430Z,15.40
2022-12-03T10:50:32.319Z,19.05
2022-12-03T10:52:59.119Z,16.50
2022-12-03T10:55:27.187Z,18.15
2022-12-03T10:57:53.884Z,17.20
2022-12-03T11:00:20.915Z,20.70
2022-12-03T11:02:54.859Z,16.02
2022-12-03T11:05:29.309Z,21.13
2022-12-03T11:07:56.691Z,21.63
2022-12-03T11:10:23.801Z,17.60
2022-12-03T11:13:27.783Z,19.25
2022-12-03T11:15:54.720Z,19.08
2022-12-03T11:18:36.104Z,17.25
2022-12-03T11:21:13.771Z,16.80
2022-12-03T11:23:46.474Z,17.67
2022-12-03T11:26:18.891Z,18.52
2022-12-03T11:28:46.253Z,19.25
2022-12-03T11:31:42.484Z,18.97
2022-12-03T11:34:18.393Z,19.17
2022-12-03T11:37:09.807Z,19.35
2022-12-03T11:39:51.752Z,18.00
2022-12-03T11:42:27.711Z,23.98
2022-12-03T11:45:08.264Z,19.52
2022-12-03T11:47:44.557Z,20.73
2022-12-03T11:50:22.828Z,22.30
2022-12-03T11:52:55.436Z,18.73
2022-12-03T11:55:37.693Z,23.05
2022-12-03T11:58:28.647Z,17.08
2022-12-03T12:00:57.785Z,21.20
2022-12-03T12:03:33.124Z,26.55
2022-12-03T12:06:04.515Z,20.60
2022-12-03T12:08:32.299Z,19.20
2022-12-03T12:10:59.756Z,22.00
2022-12-03T12:13:32.506Z,24.00
2022-12-03T12:16:04.937Z,21.38
2022-12-03T12:18:38.613Z,19.92
2022-12-03T12:21:56.917Z,21.20
2022-12-03T12:24:36.211Z,22.58
2022-12-03T12:27:09.406Z,19.55
2022-12-03T12:29:38.235Z,22.60
2022-12-03T12:32:12.939Z,22.98
2022-12-03T12:34:41.143Z,23.40
2022-12-03T12:37:26.826Z,21.65
2022-12-03T12:39:56.924Z,23.38
2022-12-03T12:42:38.266Z,20.55
2022-12-03T12:45:07.655Z,23.65
2022-12-03T12:47:35.771Z,25.42
2022-12-03T12:50:10.755Z,22.27
2022-12-03T12:53:02.608Z,24.67
2022-12-03T12:55:29.212Z,23.05
2022-12-03T12:58:01.451Z,23.10
2022-12-03T13:00:28.161Z,23.67
2022-12-03T13:02:59.961Z,25.05
2022-12-03T13:05:38.450Z,25.98
2022-12-03T13:08:27.390Z,24.45
2022-12-03T13:10:55.838Z,27.20
2022-12-03T13:13:25.268Z,26.30
2022-12-03T13:16:11.056Z,23.50
2022-12-03T13:18:45.803Z,26.27
2022-12-03T13:21:42.445Z,26.55
2022-12-03T13:24:47.662Z,22.75
2022-12-03T13:27:17.433Z,23.80
2022-12-03T13:29:51.157Z,24.77
2022-12-03T13:32:27.503Z,23.27
2022-12-03T13:35:04.010Z,24.88
2022-12-03T13:37:31.661Z,22.52
2022-12-03T13:40:08.878Z,24.73
2022-12-03T13:42:40.449Z,27.50
2022-12-03T13:45:15.840Z,27.33
2022-12-03T13:47:47.091Z,28.95
2022-12-03T13:50:29.721Z,29.42
2022-12-03T13:52:56.953Z,26.37
2022-12-03T13:55:28.883Z,23.23
2022-12-03T13:57:56.144Z,27.65
2022-12-03T14:00:23.550Z,27.70
2022-12-03T14:02:50.232Z,29.02
2022-12-03T14:05:17.013Z,26.70
2022-12-03T14:07:43.716Z,30.83
2022-12-03T14:10:12.859Z,29.60
2022-12-03T14:12:39.515Z,27.05
2022-12-03T14:15:06.722Z,31.23
2022-12-03T14:17:33.328Z,28.17
2022-12-03T14:20:01.300Z,25.75
2022-12-03T14:22:28.187Z,26.63
2022-12-03T14:24:54.842Z,30.17
2022-12-03T14:27:24.615Z,30.70
2022-12-03T14:29:51.914Z,27.37
2022-12-03T14:32:19.041Z,29.13
2022-12-03T14:34:45.747Z,28.47
2022-12-03T14:37:12.834Z,27.98
2022-12-03T14:39:39.658Z,24.57
2022-12-03T14:42:16.418Z,29.80
2022-12-03T14:44:45.594Z,27.67
2022-12-03T14:47:13.453Z,27.88
2022-12-03T14:49:40.321Z,30.67
2022-12-03T14:52:11.335Z,27.53
2022-12-03T14:54:39.120Z,27.17
2022-12-03T14:57:05.787Z,31.38
2022-12-03T14:59:32.514Z,29.67
2022-12-03T15:01:59.415Z,27.83
2022-12-03T15:04:26.299Z,35.03
2022-12-03T15:06:53.038Z,30.73
2022-12-03T15:09:20.392Z,28.60
2022-12-03T15:11:47.034Z,30.38
2022-12-03T15:14:13.929Z,27.63
2022-12-03T15:16:40.596Z,26.67
2022-12-03T15:19:07.270Z,29.13
2022-12-03T15:21:34.857Z,32.63
2022-12-03T15:24:02.667Z,35.17
2022-12-03T15:26:29.739Z,37.45
2022-12-03T15:28:56.421Z,26.55
2022-12-03T15:31:23.286Z,29.38
2022-12-03T15:33:50.312Z,31.05
2022-12-03T15:36:17.028Z,28.33
2022-12-03T15:38:44.068Z,26.73
2022-12-03T15:41:29.447Z,28.25
2022-12-03T15:44:01.944Z,31.35
2022-12-03T15:46:29.479Z,27.35
2022-12-03T15:48:57.494Z,28.08
2022-12-03T15:51:25.092Z,29.17
2022-12-03T15:53:52.096Z,28.30
2022-12-03T15:56:18.833Z,28.38
2022-12-03T15:58:45.433Z,30.13
2022-12-03T16:01:13.545Z,28.25
2022-12-03T16:03:41.135Z,31.05
2022-12-03T16:06:07.972Z,29.45
2022-12-03T16:08:34.724Z,27.20
2022-12-03T16:11:01.402Z,27.48
2022-12-03T16:13:28.027Z,28.48
2022-12-03T16:15:54.728Z,27.85
2022-12-03T16:18:21.431Z,26.35
2022-12-03T16:20:48.149Z,30.48
2022-12-03T16:23:14.823Z,24.90
2022-12-03T16:25:41.430Z,25.33
2022-12-03T16:28:08.562Z,28.38
2022-12-03T16:30:36.242Z,27.45
2022-12-03T16:33:03.418Z,27.92
2022-12-03T16:35:30.165Z,29.77
2022-12-03T16:37:56.934Z,33.30
2022-12-03T16:40:23.548Z,27.13
2022-12-03T16:42:50.186Z,24.10
2022-12-03T16:45:33.273Z,29.23
2022-12-03T16:48:01.727Z,31.25
2022-12-03T16:50:30.158Z,26.33
2022-12-03T16:52:57.676Z,27.48
2022-12-03T16:55:24.713Z,30.10
2022-12-03T16:57:51.311Z,30.63
2022-12-03T17:00:18.252Z,31.17
2022-12-03T17:02:45.094Z,71.65
2022-12-03T17:05:12.115Z,65.45
2022-12-03T17:07:38.860Z,53.67
2022-12-03T17:10:06.199Z,34.90
2022-12-03T17:13:00.664Z,34.65
2022-12-03T17:15:19.459Z,68.18
2022-12-03T17:17:46.155Z,54.83
2022-12-03T17:20:14.511Z,36.42
2022-12-03T17:22:41.663Z,52.97
2022-12-03T17:25:08.911Z,47.05
2022-12-03T17:27:37.024Z,51.15
2022-12-03T17:30:06.057Z,63.55
2022-12-03T17:32:32.888Z,41.08
2022-12-03T17:34:59.589Z,52.00
2022-12-03T17:37:26.213Z,51.95
2022-12-03T17:39:53.120Z,30.55
2022-12-03T17:42:19.883Z,44.38
2022-12-03T17:44:46.497Z,42.22
2022-12-03T17:47:13.179Z,36.85
2022-12-03T17:49:40.200Z,29.90
2022-12-03T17:52:06.842Z,35.45
2022-12-03T17:54:55.309Z,33.50
2022-12-03T17:57:20.139Z,32.70
2022-12-03T17:59:46.764Z,28.63
2022-12-03T18:02:13.777Z,31.25
2022-12-03T18:04:40.576Z,31.10
2022-12-03T18:07:07.406Z,41.03
2022-12-03T18:09:34.490Z,28.83
2022-12-03T18:12:01.245Z,31.80
2022-12-03T18:14:27.873Z,30.48
2022-12-03T18:16:54.589Z,34.30
2022-12-03T18:19:21.264Z,36.47
2022-12-03T18:21:48.093Z,39.05
2022-12-03T18:24:14.999Z,51.10
2022-12-03T18:26:42.592Z,29.50
2022-12-03T18:29:09.271Z,32.00
2022-12-03T18:31:35.960Z,34.33
2022-12-03T18:34:02.641Z,33.78
2022-12-03T18:36:33.440Z,32.85
2022-12-03T18:39:00.946Z,27.33
2022-12-03T18:41:27.890Z,36.20
2022-12-03T18:43:55.010Z,34.20
2022-12-03T18:49:10.096Z,26.65
2022-12-03T18:51:37.240Z,30.45
2022-12-03T18:54:04.213Z,33.10
2022-12-03T18:56:30.833Z,34.20
2022-12-03T18:58:57.859Z,33.50
2022-12-03T19:01:24.566Z,27.02
2022-12-03T19:03:53.402Z,30.00
2022-12-03T19:06:21.144Z,30.42
2022-12-03T19:08:49.276Z,27.00
2022-12-03T19:11:15.926Z,28.70
2022-12-03T19:13:42.986Z,30.08
2022-12-03T19:16:11.917Z,27.15
2022-12-03T19:18:39.177Z,31.40
2022-12-03T19:21:11.500Z,26.45
2022-12-03T19:23:38.191Z,28.15
2022-12-03T19:26:06.988Z,27.48
2022-12-03T19:28:34.396Z,26.80
2022-12-03T19:31:14.293Z,25.48
2022-12-03T19:33:42.521Z,28.42
2022-12-03T19:36:19.663Z,24.42
2022-12-03T19:38:52.173Z,23.95
2022-12-03T19:41:27.278Z,26.67
2022-12-03T19:43:56.351Z,26.98
2022-12-03T19:46:25.082Z,23.10
2022-12-03T19:48:53.232Z,30.35
2022-12-03T19:51:34.213Z,30.75
2022-12-03T19:54:06.036Z,31.77
2022-12-03T19:56:32.775Z,25.92
2022-12-03T19:58:59.446Z,29.42
2022-12-03T20:01:30.274Z,31.27
2022-12-03T20:03:58.316Z,27.30
2022-12-03T20:06:27.840Z,24.70
2022-12-03T20:09:04.352Z,28.55
2022-12-03T20:11:33.146Z,27.23
2022-12-03T20:14:02.984Z,27.85
2022-12-03T20:16:29.877Z,25.02
2022-12-03T20:19:01.709Z,28.92
2022-12-03T20:21:31.393Z,31.67
2022-12-03T20:23:58.769Z,33.47
2022-12-03T20:26:25.473Z,28.50
2022-12-03T20:28:55.400Z,31.25
2022-12-03T20:31:24.329Z,34.58
2022-12-03T20:33:53.885Z,26.30
2022-12-03T20:36:22.484Z,28.55
2022-12-03T20:38:53.111Z,25.88
2022-12-03T20:41:19.802Z,30.38
2022-12-03T20:43:46.593Z,27.15
2022-12-03T20:46:14.756Z,26.23
2022-12-03T20:48:42.404Z,27.67
2022-12-03T20:51:14.966Z,30.48
2022-12-03T20:53:42.049Z,29.70
2022-12-03T20:56:15.789Z,30.58
2022-12-03T20:58:42.401Z,29.08
2022-12-03T21:01:16.131Z,26.80
2022-12-03T21:03:43.895Z,28.02
2022-12-03T21:06:11.172Z,27.98
2022-12-03T21:08:42.612Z,31.27
2022-12-03T21:11:30.594Z,26.88
2022-12-03T21:13:58.270Z,31.90
2022-12-03T21:16:51.879Z,28.65
2022-12-03T21:19:17.039Z,24.67
2022-12-03T21:21:43.740Z,24.40
2022-12-03T21:24:12.145Z,23.67
2022-12-03T21:26:38.835Z,27.85
2022-12-03T21:29:05.457Z,28.35
2022-12-03T21:31:32.403Z,29.88
2022-12-03T21:33:59.229Z,25.85
2022-12-03T21:36:26.062Z,26.95
2022-12-03T21:38:52.767Z,26.13
2022-12-03T21:41:19.413Z,24.05
2022-12-03T21:43:46.350Z,26.88
2022-12-03T21:47:11.701Z,27.52
2022-12-03T21:49:01.883Z,26.80
2022-12-03T21:51:28.623Z,24.35
2022-12-03T21:53:55.236Z,29.45
2022-12-03T21:56:21.889Z,27.33
2022-12-03T21:58:48.658Z,26.05
2022-12-03T22:01:17.680Z,27.15
2022-12-03T22:03:44.915Z,25.48
2022-12-03T22:06:11.665Z,25.02
2022-12-03T22:08:38.701Z,23.77
2022-12-03T22:11:13.327Z,24.88
2022-12-03T22:13:40.762Z,25.20
2022-12-03T22:16:10.017Z,27.70
2022-12-03T22:18:36.977Z,28.45
2022-12-03T22:21:05.652Z,21.55
2022-12-03T22:23:32.918Z,28.35
2022-12-03T22:26:03.418Z,29.15
2022-12-03T22:28:30.585Z,27.95
2022-12-03T22:30:57.474Z,27.13
2022-12-03T22:33:24.516Z,24.88
2022-12-03T22:35:55.918Z,23.85
2022-12-03T22:38:22.660Z,28.83
2022-12-03T22:40:49.282Z,24.58
2022-12-03T22:43:16.283Z,30.70
2022-12-03T22:45:42.894Z,21.30
2022-12-03T22:48:09.633Z,24.33
2022-12-03T22:50:43.106Z,25.13
2022-12-03T22:53:09.839Z,26.70
2022-12-03T22:55:36.455Z,26.05
2022-12-03T22:58:04.193Z,24.38
2022-12-03T23:00:34.401Z,25.13
2022-12-03T23:03:01.182Z,29.17
2022-12-03T23:05:32.556Z,23.10
2022-12-03T23:07:59.247Z,24.95
2022-12-03T23:10:30.929Z,25.30
2022-12-03T23:12:59.207Z,24.67
2022-12-03T23:15:25.849Z,30.00
2022-12-03T23:17:52.468Z,27.40
2022-12-03T23:20:19.124Z,28.42
2022-12-03T23:22:45.809Z,28.50
2022-12-03T23:25:12.473Z,27.20
2022-12-03T23:27:39.080Z,25.25
2022-12-03T23:30:07.810Z,26.33
2022-12-03T23:32:37.533Z,26.25
2022-12-03T23:35:05.234Z,30.25
2022-12-03T23:37:31.858Z,26.92
2022-12-03T23:39:58.469Z,20.65
2022-12-03T23:42:25.085Z,30.05
2022-12-03T23:44:51.767Z,21.33
2022-12-03T23:47:18.396Z,26.23
2022-12-03T23:49:45.043Z,25.90
2022-12-03T23:52:11.919Z,28.17
2022-12-03T23:54:38.544Z,29.70
2022-12-03T23:57:05.202Z,25.50
2022-12-03T23:59:31.894Z,28.27
